createdAt,value
2019-05-11T00:00:07.729Z,24.12
2019-05-11T00:02:36.541Z,24.63
2019-05-11T00:05:06.707Z,23.38
2019-05-11T00:07:35.660Z,24.30
2019-05-11T00:10:07.327Z,23.55
2019-05-11T00:12:36.229Z,23.77
2019-05-11T00:15:06.175Z,24.27
2019-05-11T00:17:35.064Z,24.67
2019-05-11T00:20:05.232Z,24.50
2019-05-11T00:22:34.199Z,24.50
2019-05-11T00:25:03.046Z,23.77
2019-05-11T00:27:31.884Z,25.35
2019-05-11T00:30:00.679Z,23.40
2019-05-11T00:32:29.466Z,23.47
2019-05-11T00:34:58.414Z,24.77
2019-05-11T00:37:27.278Z,23.73
2019-05-11T00:39:56.160Z,24.57
2019-05-11T00:42:24.944Z,24.52
2019-05-11T00:44:53.835Z,26.42
2019-05-11T00:47:22.663Z,25.65
2019-05-11T00:49:51.453Z,23.95
2019-05-11T00:52:20.342Z,25.30
2019-05-11T00:54:49.124Z,25.02
2019-05-11T00:57:18.366Z,24.32
2019-05-11T00:59:47.155Z,23.65
2019-05-11T01:02:15.971Z,23.67
2019-05-11T01:04:44.898Z,25.57
2019-05-11T01:07:13.798Z,24.23
2019-05-11T01:09:42.604Z,24.85
2019-05-11T01:12:11.476Z,24.77
2019-05-11T01:14:40.327Z,23.65
2019-05-11T01:17:09.174Z,23.85
2019-05-11T01:19:38.425Z,23.80
2019-05-11T01:22:07.214Z,23.90
2019-05-11T01:24:36.134Z,25.40
2019-05-11T01:27:04.962Z,25.75
2019-05-11T01:29:33.848Z,24.37
2019-05-11T01:32:02.685Z,25.15
2019-05-11T01:34:31.581Z,23.95
2019-05-11T01:37:00.385Z,24.30
2019-05-11T01:39:29.154Z,24.45
2019-05-11T01:41:57.979Z,23.15
2019-05-11T01:44:26.772Z,22.15
2019-05-11T01:46:55.588Z,25.23
2019-05-11T01:49:24.376Z,23.22
2019-05-11T01:51:53.179Z,25.25
2019-05-11T01:54:22.326Z,24.00
2019-05-11T01:56:51.140Z,23.00
2019-05-11T01:59:19.985Z,23.87
2019-05-11T02:01:48.801Z,24.55
2019-05-11T02:04:17.585Z,23.60
2019-05-11T02:06:46.389Z,24.30
2019-05-11T02:09:15.251Z,22.87
2019-05-11T02:11:44.083Z,22.32
2019-05-11T02:14:12.871Z,22.60
2019-05-11T02:16:41.668Z,22.13
2019-05-11T02:19:10.553Z,21.15
2019-05-11T02:21:39.346Z,22.40
2019-05-11T02:24:08.233Z,23.35
2019-05-11T02:26:37.102Z,21.73
2019-05-11T02:29:05.920Z,22.67
2019-05-11T02:31:34.766Z,22.22
2019-05-11T02:34:03.726Z,23.25
2019-05-11T02:36:32.626Z,22.62
2019-05-11T02:39:01.464Z,22.50
2019-05-11T02:41:36.382Z,23.05
2019-05-11T02:44:00.743Z,22.55
2019-05-11T02:46:29.603Z,23.38
2019-05-11T02:48:58.399Z,22.48
2019-05-11T02:51:29.189Z,24.15
2019-05-11T02:53:59.339Z,24.67
2019-05-11T02:56:28.166Z,24.27
2019-05-11T02:58:57.009Z,23.07
2019-05-11T03:01:25.845Z,24.23
2019-05-11T03:03:58.663Z,25.97
2019-05-11T03:06:28.012Z,24.72
2019-05-11T03:08:56.836Z,24.52
2019-05-11T03:11:27.586Z,26.68
2019-05-11T03:13:56.434Z,26.65
2019-05-11T03:16:25.291Z,26.07
2019-05-11T03:18:54.193Z,27.48
2019-05-11T03:21:22.978Z,26.75
2019-05-11T03:23:51.892Z,28.85
2019-05-11T03:26:20.684Z,28.00
2019-05-11T03:28:49.582Z,29.37
2019-05-11T03:31:18.384Z,28.83
2019-05-11T03:33:47.263Z,28.98
2019-05-11T03:36:16.042Z,29.27
2019-05-11T03:38:44.867Z,28.70
2019-05-11T03:41:13.734Z,28.52
2019-05-11T03:43:42.517Z,29.63
2019-05-11T03:46:11.329Z,30.85
2019-05-11T03:48:40.119Z,30.50
2019-05-11T03:51:08.989Z,31.40
2019-05-11T03:53:37.835Z,31.52
2019-05-11T03:56:06.716Z,32.48
2019-05-11T03:58:35.523Z,31.65
2019-05-11T04:01:04.403Z,31.68
2019-05-11T04:03:33.191Z,33.02
2019-05-11T04:06:02.012Z,31.12
2019-05-11T04:08:30.807Z,32.73
2019-05-11T04:10:59.679Z,35.10
2019-05-11T04:13:28.552Z,33.18
2019-05-11T04:15:57.379Z,34.67
2019-05-11T04:18:26.233Z,34.08
2019-05-11T04:20:55.095Z,34.50
2019-05-11T04:23:23.921Z,32.25
2019-05-11T04:25:52.770Z,34.20
2019-05-11T04:28:21.669Z,29.25
2019-05-11T04:30:50.537Z,31.30
2019-05-11T04:33:19.355Z,31.82
2019-05-11T04:35:48.133Z,34.50
2019-05-11T04:38:16.965Z,34.80
2019-05-11T04:40:45.744Z,32.95
2019-05-11T04:43:14.664Z,32.80
2019-05-11T04:45:43.464Z,35.30
2019-05-11T04:48:12.319Z,35.48
2019-05-11T04:50:41.208Z,34.27
2019-05-11T04:53:09.995Z,32.63
2019-05-11T04:55:38.819Z,32.42
2019-05-11T04:58:07.661Z,32.35
2019-05-11T05:00:41.537Z,32.98
2019-05-11T05:03:10.317Z,34.03
2019-05-11T05:05:39.086Z,30.97
2019-05-11T05:08:09.883Z,30.23
2019-05-11T05:10:38.437Z,29.67
2019-05-11T05:13:10.466Z,29.42
2019-05-11T05:15:37.754Z,29.20
2019-05-11T05:18:06.671Z,28.47
2019-05-11T05:20:35.448Z,29.48
2019-05-11T05:23:04.230Z,28.62
2019-05-11T05:25:33.120Z,28.77
2019-05-11T05:28:02.059Z,29.98
2019-05-11T05:30:31.008Z,29.92
2019-05-11T05:33:00.946Z,30.65
2019-05-11T05:35:31.446Z,30.32
2019-05-11T05:38:00.237Z,29.15
2019-05-11T05:40:29.129Z,31.30
2019-05-11T05:43:02.158Z,31.90
2019-05-11T05:45:31.053Z,31.80
2019-05-11T05:48:00.425Z,32.55
2019-05-11T05:50:29.309Z,32.70
2019-05-11T05:52:58.161Z,32.45
2019-05-11T05:55:26.985Z,33.33
2019-05-11T05:57:56.822Z,34.00
2019-05-11T06:00:27.490Z,35.38
2019-05-11T06:02:56.372Z,35.13
2019-05-11T06:05:25.216Z,35.60
2019-05-11T06:07:54.132Z,35.83
2019-05-11T06:10:24.389Z,38.25
2019-05-11T06:12:53.238Z,36.80
2019-05-11T06:15:22.017Z,36.17
2019-05-11T06:17:50.812Z,39.85
2019-05-11T06:20:19.811Z,37.17
2019-05-11T06:22:50.262Z,38.65
2019-05-11T06:25:20.556Z,40.15
2019-05-11T06:27:49.356Z,41.15
2019-05-11T06:30:19.544Z,41.60
2019-05-11T06:32:48.390Z,41.65
2019-05-11T06:35:17.705Z,42.53
2019-05-11T06:37:46.479Z,44.03
2019-05-11T06:40:15.628Z,42.35
2019-05-11T06:42:44.454Z,42.27
2019-05-11T06:45:13.347Z,41.83
2019-05-11T06:47:42.275Z,44.77
2019-05-11T06:50:11.232Z,42.67
2019-05-11T06:52:40.017Z,42.83
2019-05-11T06:55:08.944Z,42.75
2019-05-11T06:57:37.709Z,42.50
2019-05-11T07:00:06.914Z,45.28
2019-05-11T07:02:35.768Z,42.83
2019-05-11T07:05:06.287Z,43.65
2019-05-11T07:07:47.178Z,42.05
2019-05-11T07:10:06.856Z,44.48
2019-05-11T07:12:35.700Z,40.73
2019-05-11T07:15:06.434Z,41.83
2019-05-11T07:17:35.217Z,47.65
2019-05-11T07:20:07.106Z,43.90
2019-05-11T07:22:35.882Z,39.15
2019-05-11T07:25:08.474Z,36.05
2019-05-11T07:27:37.321Z,37.88
2019-05-11T07:30:08.136Z,35.95
2019-05-11T07:32:38.425Z,36.73
2019-05-11T07:35:08.407Z,36.65
2019-05-11T07:37:38.492Z,34.35
2019-05-11T07:40:08.826Z,35.55
2019-05-11T07:42:38.941Z,32.83
2019-05-11T07:45:09.084Z,35.30
2019-05-11T07:47:38.193Z,32.23
2019-05-11T07:50:08.388Z,33.58
2019-05-11T07:52:37.970Z,34.05
2019-05-11T07:55:08.720Z,34.18
2019-05-11T07:57:39.136Z,33.60
2019-05-11T08:00:08.555Z,34.67
2019-05-11T08:02:38.636Z,35.03
2019-05-11T08:05:09.008Z,35.20
2019-05-11T08:07:38.045Z,35.43
2019-05-11T08:10:10.003Z,33.60
2019-05-11T08:12:39.324Z,33.18
2019-05-11T08:15:13.006Z,30.17
2019-05-11T08:17:38.955Z,31.35
2019-05-11T08:20:08.540Z,30.70
2019-05-11T08:22:37.810Z,29.72
2019-05-11T08:25:09.192Z,27.80
2019-05-11T08:27:38.090Z,26.80
2019-05-11T08:30:11.939Z,25.20
2019-05-11T08:32:40.886Z,25.12
2019-05-11T08:35:09.863Z,24.00
2019-05-11T08:37:39.675Z,22.93
2019-05-11T08:40:09.303Z,22.60
2019-05-11T08:42:38.100Z,22.93
2019-05-11T08:45:19.545Z,22.00
2019-05-11T08:47:37.906Z,21.35
2019-05-11T08:50:08.183Z,21.77
2019-05-11T08:52:38.651Z,22.13
2019-05-11T08:55:08.504Z,19.42
2019-05-11T08:57:38.719Z,19.12
2019-05-11T09:00:10.356Z,17.92
2019-05-11T09:02:39.178Z,17.90
2019-05-11T09:05:08.438Z,17.70
2019-05-11T09:07:38.387Z,16.62
2019-05-11T09:10:08.267Z,17.37
2019-05-11T09:12:38.222Z,16.12
2019-05-11T09:15:08.871Z,14.10
2019-05-11T09:17:38.277Z,16.02
2019-05-11T09:20:08.956Z,16.65
2019-05-11T09:22:38.241Z,15.88
2019-05-11T09:25:08.915Z,14.15
2019-05-11T09:27:37.867Z,12.05
2019-05-11T09:30:10.372Z,13.10
2019-05-11T09:32:39.227Z,13.80
2019-05-11T09:35:08.488Z,12.58
2019-05-11T09:37:38.040Z,12.03
2019-05-11T09:40:08.012Z,12.15
2019-05-11T09:42:38.923Z,10.35
2019-05-11T09:45:08.202Z,11.15
2019-05-11T09:47:38.618Z,10.82
2019-05-11T09:50:09.576Z,11.00
2019-05-11T09:52:38.672Z,10.93
2019-05-11T09:55:08.941Z,9.78
2019-05-11T09:57:38.288Z,11.40
2019-05-11T10:00:10.723Z,10.80
2019-05-11T10:02:39.638Z,10.37
2019-05-11T10:05:08.618Z,10.63
2019-05-11T10:07:38.092Z,8.58
2019-05-11T10:10:09.157Z,8.60
2019-05-11T10:12:38.470Z,9.78
2019-05-11T10:15:08.497Z,9.70
2019-05-11T10:17:39.156Z,9.50
2019-05-11T10:20:09.220Z,8.78
2019-05-11T10:22:38.652Z,9.03
2019-05-11T10:25:09.225Z,9.45
2019-05-11T10:27:38.520Z,7.72
2019-05-11T10:30:08.382Z,8.30
2019-05-11T10:32:38.029Z,8.95
2019-05-11T10:35:08.205Z,8.38
2019-05-11T10:37:39.000Z,7.95
2019-05-11T10:40:09.505Z,8.08
2019-05-11T10:42:38.545Z,7.22
2019-05-11T10:45:09.042Z,7.22
2019-05-11T10:47:38.479Z,6.83
2019-05-11T10:50:08.875Z,8.00
2019-05-11T10:52:39.445Z,6.83
2019-05-11T10:55:08.767Z,6.87
2019-05-11T10:57:38.708Z,7.40
2019-05-11T11:00:09.942Z,7.15
2019-05-11T11:02:38.722Z,6.95
2019-05-11T11:05:08.315Z,6.42
2019-05-11T11:07:38.341Z,6.50
2019-05-11T11:10:08.787Z,6.42
2019-05-11T11:12:38.655Z,6.35
2019-05-11T11:15:08.762Z,6.42
2019-05-11T11:17:38.251Z,5.95
2019-05-11T11:20:08.739Z,6.60
2019-05-11T11:22:43.009Z,6.30
2019-05-11T11:25:08.566Z,7.12
2019-05-11T11:27:38.079Z,6.53
2019-05-11T11:30:09.228Z,7.30
2019-05-11T11:32:38.442Z,6.78
2019-05-11T11:35:08.626Z,6.75
2019-05-11T11:37:38.719Z,6.25
2019-05-11T11:40:08.875Z,6.50
2019-05-11T11:42:37.818Z,6.30
2019-05-11T11:45:08.516Z,5.70
2019-05-11T11:47:38.402Z,5.58
2019-05-11T11:50:09.208Z,5.75
2019-05-11T11:52:38.452Z,7.10
2019-05-11T11:55:09.616Z,7.45
2019-05-11T11:57:38.460Z,7.00
2019-05-11T12:00:09.806Z,6.75
2019-05-11T12:02:38.906Z,6.40
2019-05-11T12:05:08.856Z,6.83
2019-05-11T12:07:38.695Z,7.05
2019-05-11T12:10:08.712Z,7.30
2019-05-11T12:12:38.642Z,5.85
2019-05-11T12:15:08.820Z,6.30
2019-05-11T12:17:37.995Z,6.20
2019-05-11T12:20:08.981Z,5.87
2019-05-11T12:22:38.656Z,6.17
2019-05-11T12:25:08.619Z,6.35
2019-05-11T12:27:38.338Z,5.58
2019-05-11T12:30:09.070Z,6.15
2019-05-11T12:32:45.162Z,8.65
2019-05-11T12:35:14.035Z,6.37
2019-05-11T12:37:42.850Z,8.33
2019-05-11T12:40:12.220Z,6.55
2019-05-11T12:42:41.105Z,6.87
2019-05-11T12:45:10.450Z,7.25
2019-05-11T12:47:39.275Z,6.75
2019-05-11T12:50:08.605Z,5.08
2019-05-11T12:52:38.284Z,5.12
2019-05-11T12:55:08.905Z,5.30
2019-05-11T12:57:38.610Z,5.15
2019-05-11T13:00:08.761Z,4.78
2019-05-11T13:02:38.792Z,4.90
2019-05-11T13:05:08.704Z,5.55
2019-05-11T13:07:39.261Z,5.08
2019-05-11T13:10:09.105Z,4.33
2019-05-11T13:12:38.642Z,4.72
2019-05-11T13:15:08.580Z,4.20
2019-05-11T13:17:40.577Z,4.50
2019-05-11T13:20:08.660Z,5.00
2019-05-11T13:22:38.269Z,4.28
2019-05-11T13:25:08.521Z,3.80
2019-05-11T13:27:38.625Z,4.33
2019-05-11T13:30:08.353Z,4.58
2019-05-11T13:32:38.700Z,4.20
2019-05-11T13:35:09.139Z,4.20
2019-05-11T13:37:38.762Z,4.15
2019-05-11T13:40:08.342Z,4.17
2019-05-11T13:42:38.525Z,4.20
2019-05-11T13:45:11.167Z,3.92
2019-05-11T13:47:51.874Z,3.90
2019-05-11T13:50:10.494Z,4.30
2019-05-11T13:52:39.278Z,3.80
2019-05-11T13:55:08.386Z,3.25
2019-05-11T13:57:38.144Z,3.45
2019-05-11T14:00:08.935Z,5.60
2019-05-11T14:02:38.073Z,3.77
2019-05-11T14:05:08.770Z,3.83
2019-05-11T14:07:38.226Z,4.17
2019-05-11T14:10:09.154Z,4.00
2019-05-11T14:12:38.625Z,3.95
2019-05-11T14:15:08.800Z,3.87
2019-05-11T14:17:38.036Z,3.47
2019-05-11T14:20:09.071Z,4.17
2019-05-11T14:22:38.932Z,14.13
2019-05-11T14:25:08.586Z,4.33
2019-05-11T14:27:39.085Z,5.00
2019-05-11T14:30:09.439Z,5.12
2019-05-11T14:32:38.932Z,5.45
2019-05-11T14:35:12.090Z,5.40
2019-05-11T14:37:38.495Z,5.50
2019-05-11T14:40:10.403Z,6.15
2019-05-11T14:42:39.170Z,5.62
2019-05-11T14:45:09.047Z,6.08
2019-05-11T14:47:38.723Z,6.37
2019-05-11T14:50:08.805Z,6.90
2019-05-11T14:52:39.122Z,6.58
2019-05-11T14:55:08.359Z,7.35
2019-05-11T14:57:39.666Z,6.20
2019-05-11T15:00:09.772Z,6.03
2019-05-11T15:02:50.021Z,7.92
2019-05-11T15:05:20.643Z,6.35
2019-05-11T15:07:52.335Z,6.03
2019-05-11T15:10:21.377Z,5.62
2019-05-11T15:12:50.269Z,5.92
2019-05-11T15:15:19.509Z,5.30
2019-05-11T15:17:49.272Z,5.78
2019-05-11T15:20:18.924Z,5.08
2019-05-11T15:22:48.956Z,5.08
2019-05-11T15:25:19.287Z,5.53
2019-05-11T15:27:49.005Z,4.92
2019-05-11T15:30:18.594Z,4.87
2019-05-11T15:32:48.611Z,4.80
2019-05-11T15:35:18.607Z,4.45
2019-05-11T15:37:48.177Z,4.58
2019-05-11T15:40:18.848Z,4.83
2019-05-11T15:42:48.959Z,4.15
2019-05-11T15:45:20.074Z,5.30
2019-05-11T15:47:49.118Z,4.50
2019-05-11T15:50:19.832Z,4.90
2019-05-11T15:52:49.016Z,4.50
2019-05-11T15:55:18.998Z,5.40
2019-05-11T15:57:53.056Z,3.80
2019-05-11T16:00:21.573Z,4.87
2019-05-11T16:02:52.444Z,4.40
2019-05-11T16:05:23.931Z,10.15
2019-05-11T16:07:55.150Z,4.22
2019-05-11T16:10:32.380Z,3.40
2019-05-11T16:13:03.124Z,3.75
2019-05-11T16:15:35.486Z,3.27
2019-05-11T16:18:08.162Z,4.20
2019-05-11T16:20:36.789Z,3.83
2019-05-11T16:23:05.668Z,3.55
2019-05-11T16:25:41.030Z,3.47
2019-05-11T16:28:11.888Z,3.35
2019-05-11T16:30:43.255Z,5.05
2019-05-11T16:33:17.803Z,3.10
2019-05-11T16:35:49.192Z,3.42
2019-05-11T16:38:21.768Z,3.50
2019-05-11T16:40:52.975Z,3.58
2019-05-11T16:43:22.843Z,3.37
2019-05-11T16:46:02.838Z,3.58
2019-05-11T16:48:38.756Z,3.20
2019-05-11T16:51:09.997Z,3.77
2019-05-11T16:53:39.496Z,7.12
2019-05-11T16:56:09.744Z,3.90
2019-05-11T16:58:41.057Z,10.03
2019-05-11T17:01:09.092Z,3.45
2019-05-11T17:03:54.116Z,4.17
2019-05-11T17:06:23.791Z,2.92
2019-05-11T17:09:05.189Z,4.03
2019-05-11T17:11:38.624Z,3.92
2019-05-11T17:14:09.261Z,3.27
2019-05-11T17:16:39.476Z,3.27
2019-05-11T17:19:08.905Z,3.87
2019-05-11T17:21:39.332Z,3.27
2019-05-11T17:24:08.519Z,4.60
2019-05-11T17:26:38.518Z,3.65
2019-05-11T17:29:10.069Z,3.72
2019-05-11T17:31:43.379Z,4.45
2019-05-11T17:34:20.058Z,3.87
2019-05-11T17:36:44.655Z,3.67
2019-05-11T17:39:14.949Z,3.83
2019-05-11T17:41:43.860Z,3.58
2019-05-11T17:44:18.335Z,4.08
2019-05-11T17:46:48.948Z,4.15
2019-05-11T17:49:18.570Z,4.30
2019-05-11T17:51:48.466Z,5.08
2019-05-11T17:54:21.269Z,5.50
2019-05-11T17:56:50.200Z,3.80
2019-05-11T17:59:20.401Z,4.22
2019-05-11T18:01:49.304Z,4.58
2019-05-11T18:04:18.522Z,4.53
2019-05-11T18:06:54.075Z,4.87
2019-05-11T18:09:23.242Z,4.47
2019-05-11T18:11:53.829Z,5.05
2019-05-11T18:14:28.010Z,4.10
2019-05-11T18:17:09.903Z,4.42
2019-05-11T18:19:39.463Z,4.72
2019-05-11T18:22:10.255Z,4.10
2019-05-11T18:24:40.948Z,3.92
2019-05-11T18:27:11.642Z,4.67
2019-05-11T18:29:42.161Z,4.62
2019-05-11T18:32:11.351Z,4.80
2019-05-11T18:34:42.188Z,4.15
2019-05-11T18:37:12.079Z,4.50
2019-05-11T18:39:41.626Z,4.28
2019-05-11T18:42:10.739Z,4.03
2019-05-11T18:44:40.089Z,4.35
2019-05-11T18:47:09.009Z,4.45
2019-05-11T18:49:39.394Z,4.00
2019-05-11T18:52:09.224Z,4.00
2019-05-11T18:54:42.102Z,5.20
2019-05-11T18:57:11.969Z,4.33
2019-05-11T18:59:42.242Z,5.05
2019-05-11T19:02:14.780Z,4.20
2019-05-11T19:04:44.586Z,3.83
2019-05-11T19:07:17.005Z,4.78
2019-05-11T19:09:44.210Z,4.50
2019-05-11T19:12:13.107Z,4.25
2019-05-11T19:14:41.990Z,4.60
2019-05-11T19:17:10.830Z,4.70
2019-05-11T19:19:39.730Z,5.58
2019-05-11T19:22:09.147Z,5.70
2019-05-11T19:24:38.363Z,5.25
2019-05-11T19:27:08.147Z,4.67
2019-05-11T19:29:37.947Z,4.17
2019-05-11T19:32:10.818Z,4.17
2019-05-11T19:34:38.780Z,3.35
2019-05-11T19:37:08.653Z,4.12
2019-05-11T19:39:38.443Z,4.08
2019-05-11T19:42:07.941Z,3.52
2019-05-11T19:44:38.568Z,4.05
2019-05-11T19:47:08.956Z,4.42
2019-05-11T19:49:38.393Z,3.62
2019-05-11T19:52:08.591Z,4.92
2019-05-11T19:54:38.161Z,4.37
2019-05-11T19:57:08.380Z,4.28
2019-05-11T19:59:38.728Z,4.80
2019-05-11T20:02:08.385Z,4.03
2019-05-11T20:04:38.685Z,4.10
2019-05-11T20:07:08.773Z,3.70
2019-05-11T20:09:38.702Z,3.80
2019-05-11T20:12:07.982Z,3.90
2019-05-11T20:14:37.852Z,3.62
2019-05-11T20:17:08.806Z,3.35
2019-05-11T20:19:38.455Z,3.83
2019-05-11T20:22:07.475Z,4.08
2019-05-11T20:24:36.320Z,3.85
2019-05-11T20:27:05.110Z,3.83
2019-05-11T20:29:34.027Z,4.08
2019-05-11T20:32:02.885Z,4.03
2019-05-11T20:34:31.731Z,4.15
2019-05-11T20:37:00.590Z,3.70
2019-05-11T20:39:29.394Z,3.92
2019-05-11T20:41:58.244Z,4.08
2019-05-11T20:44:28.688Z,3.92
2019-05-11T20:46:58.142Z,3.92
2019-05-11T20:49:28.226Z,4.30
2019-05-11T20:51:58.021Z,4.30
2019-05-11T20:54:28.125Z,3.33
2019-05-11T20:56:58.490Z,3.67
2019-05-11T20:59:29.017Z,5.28
2019-05-11T21:01:58.878Z,3.50
2019-05-11T21:04:28.231Z,3.60
2019-05-11T21:06:58.106Z,4.60
2019-05-11T21:09:28.989Z,4.65
2019-05-11T21:11:58.898Z,3.90
2019-05-11T21:14:28.814Z,3.62
2019-05-11T21:16:58.758Z,4.05
2019-05-11T21:19:28.449Z,4.20
2019-05-11T21:21:59.052Z,3.67
2019-05-11T21:24:28.268Z,4.08
2019-05-11T21:26:58.482Z,3.60
2019-05-11T21:29:30.896Z,4.05
2019-05-11T21:31:59.007Z,4.15
2019-05-11T21:34:28.135Z,3.85
2019-05-11T21:36:56.949Z,4.35
2019-05-11T21:39:25.731Z,4.62
2019-05-11T21:41:58.184Z,4.50
2019-05-11T21:44:27.841Z,4.20
2019-05-11T21:46:57.800Z,5.03
2019-05-11T21:49:26.646Z,4.60
2019-05-11T21:52:04.226Z,4.40
2019-05-11T21:54:29.961Z,5.70
2019-05-11T21:56:57.824Z,6.08
2019-05-11T21:59:27.674Z,6.08
2019-05-11T22:01:57.177Z,5.33
2019-05-11T22:04:28.305Z,5.17
2019-05-11T22:06:58.580Z,4.20
2019-05-11T22:09:27.829Z,4.40
2019-05-11T22:11:57.130Z,4.87
2019-05-11T22:14:29.669Z,4.45
2019-05-11T22:16:59.168Z,4.35
2019-05-11T22:19:26.913Z,5.33
2019-05-11T22:21:58.330Z,4.85
2019-05-11T22:24:28.148Z,5.35
2019-05-11T22:26:57.471Z,4.75
2019-05-11T22:29:28.613Z,5.53
2019-05-11T22:31:58.115Z,4.60
2019-05-11T22:34:28.409Z,4.67
2019-05-11T22:36:59.271Z,4.75
2019-05-11T22:39:27.832Z,4.12
2019-05-11T22:41:58.799Z,4.83
2019-05-11T22:44:27.916Z,5.42
2019-05-11T22:46:58.248Z,5.58
2019-05-11T22:49:28.451Z,4.45
2019-05-11T22:51:59.597Z,5.53
2019-05-11T22:54:28.977Z,4.42
2019-05-11T22:56:58.646Z,4.95
2019-05-11T22:59:28.092Z,4.60
2019-05-11T23:01:57.150Z,4.40
2019-05-11T23:04:28.594Z,4.40
2019-05-11T23:06:58.116Z,4.65
2019-05-11T23:09:27.701Z,4.35
2019-05-11T23:11:58.316Z,4.50
2019-05-11T23:14:28.262Z,4.42
2019-05-11T23:16:58.587Z,3.95
2019-05-11T23:19:27.958Z,4.53
2019-05-11T23:21:58.739Z,4.40
2019-05-11T23:24:28.812Z,3.92
2019-05-11T23:26:58.014Z,4.05
2019-05-11T23:29:27.920Z,4.22
2019-05-11T23:31:58.396Z,4.72
2019-05-11T23:34:28.255Z,4.50
2019-05-11T23:36:59.165Z,4.42
2019-05-11T23:39:28.289Z,4.00
2019-05-11T23:41:58.589Z,3.65
2019-05-11T23:44:27.591Z,3.83
2019-05-11T23:46:56.471Z,3.47
2019-05-11T23:49:25.342Z,3.60
2019-05-11T23:51:54.168Z,3.42
2019-05-11T23:54:23.030Z,3.22
2019-05-11T23:56:51.872Z,3.02
2019-05-11T23:59:20.724Z,3.58
